createdAt,value
2022-08-10T00:01:52.132Z,81.20
2022-08-10T00:04:22.061Z,81.30
2022-08-10T00:06:55.235Z,81.10
2022-08-10T00:09:23.587Z,81.30
2022-08-10T00:11:51.140Z,81.80
2022-08-10T00:14:18.442Z,81.20
2022-08-10T00:16:48.286Z,81.30
2022-08-10T00:19:16.395Z,81.70
2022-08-10T00:21:44.988Z,82.20
2022-08-10T00:24:12.300Z,81.90
2022-08-10T00:27:51.830Z,81.40
2022-08-10T00:29:26.798Z,81.40
2022-08-10T00:31:59.195Z,83.60
2022-08-10T00:34:28.351Z,82.20
2022-08-10T00:36:56.215Z,82.50
2022-08-10T00:39:23.575Z,82.90
2022-08-10T00:42:01.499Z,82.50
2022-08-10T00:44:36.573Z,82.50
2022-08-10T00:47:04.418Z,82.90
2022-08-10T00:49:34.043Z,82.40
2022-08-10T00:52:02.649Z,83.20
2022-08-10T00:54:31.070Z,83.60
2022-08-10T00:57:15.843Z,83.20
2022-08-10T00:59:59.591Z,83.30
2022-08-10T01:02:32.669Z,82.80
2022-08-10T01:05:04.097Z,83.30
2022-08-10T01:07:49.907Z,83.40
2022-08-10T01:10:28.742Z,84.10
2022-08-10T01:13:13.378Z,83.40
2022-08-10T01:16:04.931Z,84.00
2022-08-10T01:18:53.750Z,83.40
2022-08-10T01:21:53.976Z,83.00
2022-08-10T01:24:34.502Z,84.10
2022-08-10T01:27:07.850Z,83.30
2022-08-10T01:29:56.854Z,83.70
2022-08-10T01:32:38.004Z,83.60
2022-08-10T01:35:24.749Z,83.50
2022-08-10T01:38:22.291Z,83.70
2022-08-10T01:40:56.194Z,83.40
2022-08-10T01:43:28.312Z,83.10
2022-08-10T01:45:59.473Z,83.80
2022-08-10T01:48:34.455Z,83.30
2022-08-10T01:51:23.199Z,83.40
2022-08-10T01:53:56.805Z,84.70
2022-08-10T01:56:26.488Z,84.50
2022-08-10T01:58:59.847Z,85.00
2022-08-10T02:01:32.591Z,85.10
2022-08-10T02:04:09.804Z,84.20
2022-08-10T02:06:45.319Z,84.30
2022-08-10T02:09:17.098Z,84.00
2022-08-10T02:12:05.276Z,84.30
2022-08-10T02:14:35.332Z,84.50
2022-08-10T02:17:57.469Z,84.90
2022-08-10T02:20:07.372Z,84.90
2022-08-10T02:22:45.855Z,84.70
2022-08-10T02:25:39.993Z,84.50
2022-08-10T02:28:06.517Z,85.10
2022-08-10T02:30:34.288Z,84.70
2022-08-10T02:33:02.220Z,84.60
2022-08-10T02:35:53.716Z,84.60
2022-08-10T02:38:21.640Z,84.60
2022-08-10T02:45:01.480Z,84.60
2022-08-10T02:45:29.330Z,84.90
2022-08-10T02:47:01.627Z,85.20
2022-08-10T02:49:45.588Z,85.00
2022-08-10T02:52:24.748Z,85.30
2022-08-10T02:54:58.838Z,85.40
2022-08-10T02:57:37.220Z,85.50
2022-08-10T03:00:26.108Z,85.70
2022-08-10T03:02:58.356Z,85.70
2022-08-10T03:05:31.288Z,85.30
2022-08-10T03:08:07.065Z,85.00
2022-08-10T03:10:43.335Z,86.00
2022-08-10T03:13:12.302Z,85.40
2022-08-10T03:15:44.090Z,85.40
2022-08-10T03:18:12.427Z,86.30
2022-08-10T03:20:41.894Z,85.60
2022-08-10T03:23:18.399Z,85.60
2022-08-10T03:25:53.443Z,85.90
2022-08-10T03:28:28.144Z,85.80
2022-08-10T03:30:57.505Z,85.90
2022-08-10T03:33:28.038Z,85.50
2022-08-10T03:36:40.709Z,85.90
2022-08-10T03:38:46.107Z,85.90
2022-08-10T03:41:16.247Z,86.50
2022-08-10T03:43:48.198Z,86.10
2022-08-10T03:46:19.281Z,86.00
2022-08-10T03:48:50.229Z,85.90
2022-08-10T03:51:21.722Z,86.00
2022-08-10T03:54:02.893Z,86.20
2022-08-10T03:56:38.006Z,86.20
2022-08-10T03:59:11.325Z,86.40
2022-08-10T04:02:43.489Z,86.40
2022-08-10T04:04:26.669Z,87.00
2022-08-10T04:06:56.436Z,87.00
2022-08-10T04:09:54.031Z,86.30
2022-08-10T04:12:19.444Z,86.60
2022-08-10T04:14:52.773Z,86.80
2022-08-10T04:17:57.459Z,87.10
2022-08-10T04:20:24.509Z,86.80
2022-08-10T04:22:53.689Z,86.80
2022-08-10T04:25:24.006Z,86.50
2022-08-10T04:27:54.751Z,87.00
2022-08-10T04:30:22.584Z,86.80
2022-08-10T04:32:53.704Z,87.70
2022-08-10T04:35:22.817Z,87.00
2022-08-10T04:37:53.900Z,87.00
2022-08-10T04:40:29.056Z,87.20
2022-08-10T04:43:07.464Z,87.30
2022-08-10T04:45:48.328Z,87.50
2022-08-10T04:48:40.699Z,87.40
2022-08-10T04:51:17.940Z,87.30
2022-08-10T04:54:05.273Z,88.10
2022-08-10T04:56:39.480Z,87.30
2022-08-10T04:59:09.148Z,87.50
2022-08-10T05:02:28.293Z,87.80
2022-08-10T05:04:34.745Z,88.10
2022-08-10T05:07:16.259Z,88.50
2022-08-10T05:10:00.923Z,88.40
2022-08-10T05:12:37.972Z,88.60
2022-08-10T05:15:12.268Z,88.00
2022-08-10T05:18:08.798Z,88.20
2022-08-10T05:20:30.333Z,88.20
2022-08-10T05:23:00.830Z,88.20
2022-08-10T05:25:32.885Z,88.20
2022-08-10T05:28:06.614Z,88.50
2022-08-10T05:30:37.212Z,88.80
2022-08-10T05:33:08.932Z,88.80
2022-08-10T05:35:56.675Z,88.40
2022-08-10T05:38:27.733Z,88.60
2022-08-10T05:40:55.919Z,88.50
2022-08-10T05:43:24.257Z,88.90
2022-08-10T05:46:17.682Z,89.10
2022-08-10T05:48:56.857Z,88.80
2022-08-10T05:51:28.693Z,89.00
2022-08-10T05:54:02.288Z,88.90
2022-08-10T05:56:55.063Z,88.90
2022-08-10T06:00:29.530Z,89.70
2022-08-10T06:02:35.772Z,89.30
2022-08-10T06:05:13.997Z,89.50
2022-08-10T06:07:47.951Z,89.80
2022-08-10T06:10:31.306Z,90.00
2022-08-10T06:13:31.035Z,90.20
2022-08-10T06:16:13.301Z,90.00
2022-08-10T06:18:42.036Z,89.90
2022-08-10T06:21:16.344Z,89.90
2022-08-10T06:23:44.383Z,90.00
2022-08-10T06:26:14.938Z,90.00
2022-08-10T06:29:02.228Z,90.00
2022-08-10T06:31:47.152Z,90.20
2022-08-10T06:34:26.985Z,90.10
2022-08-10T06:36:55.385Z,90.20
2022-08-10T06:39:34.806Z,90.60
2022-08-10T06:42:15.847Z,90.80
2022-08-10T06:44:53.581Z,91.00
2022-08-10T06:47:25.467Z,90.70
2022-08-10T06:49:59.940Z,90.70
2022-08-10T06:52:33.460Z,90.60
2022-08-10T06:55:05.486Z,90.70
2022-08-10T06:57:38.672Z,90.80
2022-08-10T07:00:08.139Z,90.80
2022-08-10T07:02:54.904Z,90.70
2022-08-10T07:05:27.424Z,90.90
2022-08-10T07:08:01.039Z,90.70
2022-08-10T07:10:41.069Z,91.00
2022-08-10T07:13:15.852Z,91.00
2022-08-10T07:16:06.153Z,90.90
2022-08-10T07:18:36.534Z,91.00
2022-08-10T07:21:05.578Z,91.00
2022-08-10T07:23:57.663Z,91.10
2022-08-10T07:26:24.087Z,91.10
2022-08-10T07:28:52.414Z,91.20
2022-08-10T07:31:33.019Z,91.00
2022-08-10T07:34:10.205Z,91.10
2022-08-10T07:36:40.826Z,91.30
2022-08-10T07:39:12.754Z,91.30
2022-08-10T07:41:46.802Z,91.30
2022-08-10T07:44:15.175Z,91.90
2022-08-10T07:46:47.242Z,91.80
2022-08-10T07:49:23.653Z,91.70
2022-08-10T07:51:54.443Z,91.60
2022-08-10T07:54:27.795Z,91.40
2022-08-10T07:57:01.776Z,91.60
2022-08-10T07:59:37.969Z,91.50
2022-08-10T08:02:13.534Z,91.50
2022-08-10T08:04:44.078Z,91.50
2022-08-10T08:07:13.014Z,91.50
2022-08-10T08:09:57.936Z,91.50
2022-08-10T08:12:36.757Z,91.60
2022-08-10T08:16:14.381Z,91.60
2022-08-10T08:18:02.850Z,91.60
2022-08-10T08:20:33.975Z,91.60
2022-08-10T08:24:10.688Z,91.60
2022-08-10T08:25:52.716Z,91.60
2022-08-10T08:28:20.483Z,91.60
2022-08-10T08:30:49.010Z,91.70
2022-08-10T08:33:19.707Z,91.70
2022-08-10T08:35:48.360Z,91.60
2022-08-10T08:38:30.266Z,91.70
2022-08-10T08:41:20.464Z,91.80
2022-08-10T08:44:14.596Z,91.70
2022-08-10T08:48:03.557Z,91.80
2022-08-10T08:50:09.410Z,91.80
2022-08-10T08:52:55.487Z,91.70
2022-08-10T08:56:01.421Z,91.60
2022-08-10T08:59:05.316Z,91.60
2022-08-10T09:02:07.213Z,91.60
2022-08-10T09:05:04.134Z,91.50
2022-08-10T09:08:03.248Z,91.50
2022-08-10T09:10:50.700Z,91.20
2022-08-10T09:13:37.112Z,91.40
2022-08-10T09:16:26.117Z,91.30
2022-08-10T09:19:34.763Z,91.40
2022-08-10T09:22:28.048Z,91.30
2022-08-10T09:25:28.349Z,91.40
2022-08-10T09:28:07.536Z,91.40
2022-08-10T09:31:18.825Z,91.20
2022-08-10T09:36:24.605Z,91.00
2022-08-10T09:37:19.440Z,91.30
2022-08-10T09:40:12.315Z,91.40
2022-08-10T09:43:21.944Z,91.40
2022-08-10T09:46:11.724Z,91.20
2022-08-10T09:48:52.374Z,91.40
2022-08-10T09:51:45.892Z,91.50
2022-08-10T09:54:28.487Z,91.30
2022-08-10T09:57:44.352Z,91.00
2022-08-10T10:00:15.527Z,90.90
2022-08-10T10:03:17.736Z,90.80
2022-08-10T10:05:54.358Z,90.80
2022-08-10T10:09:10.010Z,90.80
2022-08-10T10:12:07.717Z,90.50
2022-08-10T10:15:24.779Z,90.80
2022-08-10T10:18:08.081Z,90.50
2022-08-10T10:20:54.328Z,90.90
2022-08-10T10:24:19.844Z,91.10
2022-08-10T10:27:18.949Z,90.10
2022-08-10T10:30:01.277Z,89.80
2022-08-10T10:32:52.428Z,90.50
2022-08-10T10:35:29.736Z,90.50
2022-08-10T10:38:02.834Z,90.10
2022-08-10T10:40:51.213Z,90.50
2022-08-10T10:43:47.326Z,90.40
2022-08-10T10:46:46.718Z,90.40
2022-08-10T10:49:23.131Z,90.30
2022-08-10T10:52:11.353Z,90.20
2022-08-10T10:54:47.806Z,89.80
2022-08-10T10:58:00.466Z,90.10
2022-08-10T11:00:42.122Z,89.20
2022-08-10T11:03:21.328Z,88.80
2022-08-10T11:06:10.135Z,88.50
2022-08-10T11:08:44.729Z,88.80
2022-08-10T11:12:01.523Z,89.70
2022-08-10T11:14:26.971Z,90.00
2022-08-10T11:17:23.191Z,89.20
2022-08-10T11:20:00.296Z,89.00
2022-08-10T11:22:40.212Z,87.80
2022-08-10T11:25:28.783Z,86.20
2022-08-10T11:28:16.321Z,87.00
2022-08-10T11:30:55.301Z,88.10
2022-08-10T11:34:47.803Z,87.90
2022-08-10T11:37:16.193Z,88.20
2022-08-10T11:39:56.226Z,88.50
2022-08-10T11:42:55.624Z,88.40
2022-08-10T11:45:34.423Z,88.10
2022-08-10T11:48:53.240Z,87.40
2022-08-10T11:51:27.296Z,87.10
2022-08-10T11:54:05.357Z,87.90
2022-08-10T11:56:43.764Z,85.60
2022-08-10T11:59:30.503Z,83.50
2022-08-10T12:01:58.749Z,81.60
2022-08-10T12:04:28.457Z,84.40
2022-08-10T12:06:57.892Z,84.40
2022-08-10T12:10:09.463Z,84.30
2022-08-10T12:12:19.125Z,84.00
2022-08-10T12:15:11.068Z,82.00
2022-08-10T12:17:44.748Z,84.50
2022-08-10T12:20:31.484Z,85.00
2022-08-10T12:23:09.923Z,84.40
2022-08-10T12:25:55.666Z,84.80
2022-08-10T12:28:51.864Z,81.40
2022-08-10T12:31:34.074Z,82.20
2022-08-10T12:34:14.542Z,81.80
2022-08-10T12:36:47.391Z,81.60
2022-08-10T12:39:25.088Z,82.80
2022-08-10T12:42:39.367Z,81.70
2022-08-10T12:45:14.603Z,83.50
2022-08-10T12:48:31.084Z,80.50
2022-08-10T12:51:14.910Z,76.30
2022-08-10T12:53:44.839Z,81.10
2022-08-10T12:56:26.723Z,80.60
2022-08-10T12:59:00.445Z,81.30
2022-08-10T13:02:09.653Z,81.60
2022-08-10T13:04:36.446Z,82.00
2022-08-10T13:07:06.023Z,80.70
2022-08-10T13:09:34.625Z,76.90
2022-08-10T13:12:36.854Z,77.60
2022-08-10T13:15:25.393Z,80.30
2022-08-10T13:18:18.837Z,79.90
2022-08-10T13:20:52.161Z,78.20
2022-08-10T13:23:28.226Z,78.90
2022-08-10T13:25:58.897Z,81.30
2022-08-10T13:28:39.974Z,80.00
2022-08-10T13:31:16.752Z,80.30
2022-08-10T13:34:39.954Z,80.10
2022-08-10T13:36:40.295Z,80.90
2022-08-10T13:39:09.043Z,80.10
2022-08-10T13:41:40.214Z,78.70
2022-08-10T13:44:15.041Z,78.30
2022-08-10T13:46:51.151Z,78.80
2022-08-10T13:49:20.378Z,79.80
2022-08-10T13:51:56.636Z,78.50
2022-08-10T13:54:29.149Z,78.20
2022-08-10T13:56:57.881Z,75.40
2022-08-10T14:00:32.975Z,77.60
2022-08-10T14:02:25.246Z,77.70
2022-08-10T14:04:55.674Z,78.60
2022-08-10T14:07:27.442Z,77.90
2022-08-10T14:10:07.166Z,77.40
2022-08-10T14:12:55.983Z,78.50
2022-08-10T14:15:32.373Z,79.10
2022-08-10T14:18:01.901Z,78.00
2022-08-10T14:20:34.252Z,78.90
2022-08-10T14:23:04.061Z,78.80
2022-08-10T14:25:33.424Z,78.30
2022-08-10T14:28:04.178Z,78.50
2022-08-10T14:30:33.124Z,76.90
2022-08-10T14:33:04.533Z,78.30
2022-08-10T14:36:19.444Z,77.40
2022-08-10T14:38:28.877Z,77.70
2022-08-10T14:40:59.020Z,79.00
2022-08-10T14:43:34.947Z,79.80
2022-08-10T14:46:07.583Z,80.10
2022-08-10T14:48:40.397Z,78.50
2022-08-10T14:51:11.114Z,78.10
2022-08-10T14:53:43.015Z,78.80
2022-08-10T14:56:13.480Z,78.60
2022-08-10T14:58:59.315Z,77.30
2022-08-10T15:02:39.093Z,77.40
2022-08-10T15:04:34.077Z,77.50
2022-08-10T15:07:12.341Z,76.80
2022-08-10T15:10:00.406Z,77.40
2022-08-10T15:12:33.252Z,77.20
2022-08-10T15:15:02.362Z,76.50
2022-08-10T15:17:37.395Z,76.80
2022-08-10T15:20:15.086Z,78.20
2022-08-10T15:22:58.752Z,78.40
2022-08-10T15:25:28.378Z,77.90
2022-08-10T15:28:05.285Z,76.40
2022-08-10T15:30:42.728Z,75.30
2022-08-10T15:34:03.272Z,75.90
2022-08-10T15:37:02.264Z,76.90
2022-08-10T15:40:28.020Z,76.50
2022-08-10T15:43:05.565Z,75.00
2022-08-10T15:45:56.960Z,74.30
2022-08-10T15:48:27.237Z,75.70
2022-08-10T15:51:06.570Z,75.90
2022-08-10T15:53:49.313Z,76.20
2022-08-10T15:56:28.731Z,75.90
2022-08-10T15:59:19.448Z,76.00
2022-08-10T16:02:13.463Z,75.20
2022-08-10T16:05:10.636Z,74.50
2022-08-10T16:08:00.373Z,75.50
2022-08-10T16:10:45.592Z,75.30
2022-08-10T16:13:59.321Z,76.00
2022-08-10T16:16:14.388Z,75.80
2022-08-10T16:18:45.745Z,74.40
2022-08-10T16:21:19.675Z,75.30
2022-08-10T16:24:15.718Z,75.40
2022-08-10T16:26:46.719Z,75.70
2022-08-10T16:29:21.149Z,75.00
2022-08-10T16:31:57.960Z,73.70
2022-08-10T16:34:28.250Z,74.40
2022-08-10T16:37:10.080Z,73.90
2022-08-10T16:39:58.943Z,73.20
2022-08-10T16:42:32.432Z,73.70
2022-08-10T16:45:07.639Z,74.90
2022-08-10T16:47:38.976Z,75.10
2022-08-10T16:50:09.607Z,75.60
2022-08-10T16:52:37.535Z,75.10
2022-08-10T16:55:24.483Z,74.70
2022-08-10T16:58:06.754Z,75.00
2022-08-10T17:00:35.388Z,74.60
2022-08-10T17:04:05.422Z,75.10
2022-08-10T17:06:01.477Z,75.00
2022-08-10T17:08:52.970Z,72.60
2022-08-10T17:11:23.872Z,72.50
2022-08-10T17:13:56.352Z,72.60
2022-08-10T17:16:25.989Z,72.90
2022-08-10T17:18:56.768Z,73.50
2022-08-10T17:21:30.232Z,73.70
2022-08-10T17:24:03.046Z,74.20
2022-08-10T17:26:35.667Z,74.50
2022-08-10T17:29:58.166Z,74.80
2022-08-10T17:32:54.002Z,75.50
2022-08-10T17:35:24.653Z,73.10
2022-08-10T17:37:56.900Z,72.50
2022-08-10T17:40:28.605Z,72.50
2022-08-10T17:42:57.069Z,73.90
2022-08-10T17:45:47.617Z,74.40
2022-08-10T17:48:18.889Z,72.50
2022-08-10T17:50:51.196Z,74.30
2022-08-10T17:53:22.561Z,74.20
2022-08-10T17:55:55.718Z,73.70
2022-08-10T17:58:27.194Z,74.00
2022-08-10T18:01:38.384Z,73.70
2022-08-10T18:03:57.697Z,74.30
2022-08-10T18:06:26.253Z,73.20
2022-08-10T18:08:58.093Z,73.40
2022-08-10T18:11:33.216Z,73.70
2022-08-10T18:14:09.536Z,73.80
2022-08-10T18:16:42.002Z,73.70
2022-08-10T18:19:14.763Z,74.00
2022-08-10T18:21:44.326Z,73.40
2022-08-10T18:24:18.611Z,73.20
2022-08-10T18:26:49.700Z,72.90
2022-08-10T18:29:25.208Z,73.00
2022-08-10T18:32:01.788Z,72.10
2022-08-10T18:34:31.778Z,73.30
2022-08-10T18:37:00.963Z,72.40
2022-08-10T18:39:32.182Z,72.90
2022-08-10T18:42:12.419Z,72.50
2022-08-10T18:44:55.034Z,72.10
2022-08-10T18:47:33.666Z,72.30
2022-08-10T18:50:14.296Z,71.10
2022-08-10T18:52:46.309Z,72.00
2022-08-10T18:55:25.095Z,72.60
2022-08-10T18:58:00.538Z,72.50
2022-08-10T19:00:44.316Z,71.40
2022-08-10T19:03:13.648Z,70.90
2022-08-10T19:06:16.297Z,71.70
2022-08-10T19:08:49.085Z,70.80
2022-08-10T19:11:45.700Z,71.10
2022-08-10T19:14:39.383Z,70.30
2022-08-10T19:17:26.923Z,70.90
2022-08-10T19:20:32.026Z,71.20
2022-08-10T19:23:23.882Z,70.90
2022-08-10T19:26:41.117Z,69.80
2022-08-10T19:30:08.172Z,71.10
2022-08-10T19:32:51.181Z,71.30
2022-08-10T19:36:03.673Z,71.10
2022-08-10T19:39:10.810Z,70.30
2022-08-10T19:41:45.904Z,70.10
2022-08-10T19:44:25.755Z,70.50
2022-08-10T19:47:30.711Z,70.50
2022-08-10T19:50:13.162Z,69.50
2022-08-10T19:52:58.412Z,70.00
2022-08-10T19:55:31.973Z,69.50
2022-08-10T19:58:23.776Z,70.30
2022-08-10T20:01:01.791Z,70.20
2022-08-10T20:03:50.343Z,70.00
2022-08-10T20:06:42.265Z,69.20
2022-08-10T20:09:22.580Z,70.30
2022-08-10T20:12:05.174Z,70.40
2022-08-10T20:14:57.999Z,70.60
2022-08-10T20:17:52.832Z,70.50
2022-08-10T20:20:41.570Z,70.50
2022-08-10T20:23:28.561Z,70.50
2022-08-10T20:26:01.053Z,70.50
2022-08-10T20:28:36.726Z,70.70
2022-08-10T20:31:32.964Z,70.70
2022-08-10T20:34:05.398Z,70.50
2022-08-10T20:36:39.817Z,70.80
2022-08-10T20:39:34.222Z,70.90
2022-08-10T20:42:27.341Z,70.80
2022-08-10T20:45:04.106Z,70.80
2022-08-10T20:47:54.200Z,70.60
2022-08-10T20:50:45.930Z,70.80
2022-08-10T20:53:22.435Z,70.50
2022-08-10T20:56:10.758Z,70.70
2022-08-10T20:58:58.175Z,70.90
2022-08-10T21:02:11.845Z,70.60
2022-08-10T21:04:30.452Z,70.70
2022-08-10T21:07:28.236Z,70.80
2022-08-10T21:10:28.199Z,70.70
2022-08-10T21:13:18.763Z,70.70
2022-08-10T21:15:55.485Z,70.80
2022-08-10T21:18:44.110Z,70.80
2022-08-10T21:21:59.004Z,70.80
2022-08-10T21:24:40.966Z,70.80
2022-08-10T21:27:33.530Z,71.00
2022-08-10T21:30:08.736Z,70.80
2022-08-10T21:32:41.351Z,70.90
2022-08-10T21:35:37.104Z,71.00
2022-08-10T21:38:31.221Z,71.00
2022-08-10T21:41:57.551Z,71.70
2022-08-10T21:45:08.021Z,71.00
2022-08-10T21:48:17.417Z,71.10
2022-08-10T21:51:24.733Z,71.10
2022-08-10T21:54:40.666Z,71.10
2022-08-10T21:57:43.745Z,71.20
2022-08-10T22:00:33.360Z,71.10
2022-08-10T22:03:21.714Z,71.20
2022-08-10T22:06:10.938Z,71.30
2022-08-10T22:12:24.975Z,71.20
2022-08-10T22:15:42.597Z,71.20
2022-08-10T22:22:03.003Z,71.40
2022-08-10T22:25:17.046Z,71.40
2022-08-10T22:28:12.417Z,71.40
2022-08-10T22:31:26.029Z,71.20
2022-08-10T22:31:29.012Z,72.00
2022-08-10T22:31:49.668Z,72.10
2022-08-10T22:35:00.544Z,71.60
2022-08-10T22:38:08.060Z,71.50
2022-08-10T22:40:54.299Z,71.60
2022-08-10T22:43:48.905Z,71.50
2022-08-10T22:46:38.960Z,71.40
2022-08-10T22:49:06.576Z,71.50
2022-08-10T22:51:42.665Z,71.50
2022-08-10T22:54:57.929Z,71.60
2022-08-10T22:57:44.296Z,71.60
2022-08-10T23:00:15.105Z,71.40
2022-08-10T23:02:51.958Z,71.80
2022-08-10T23:05:30.626Z,71.50
2022-08-10T23:08:29.943Z,71.50
2022-08-10T23:11:12.880Z,71.70
2022-08-10T23:13:47.474Z,71.50
2022-08-10T23:16:46.369Z,71.50
2022-08-10T23:19:22.709Z,71.50
2022-08-10T23:22:04.957Z,71.50
2022-08-10T23:24:47.668Z,71.60
2022-08-10T23:27:39.327Z,71.70
2022-08-10T23:30:17.749Z,71.70
2022-08-10T23:32:50.996Z,71.60
2022-08-10T23:36:31.810Z,71.70
2022-08-10T23:38:10.749Z,71.80
2022-08-10T23:40:43.373Z,71.80
2022-08-10T23:43:18.737Z,71.80
2022-08-10T23:45:53.137Z,72.00
2022-08-10T23:48:30.640Z,72.00
2022-08-10T23:51:01.358Z,71.80
2022-08-10T23:53:34.144Z,71.90
2022-08-10T23:56:09.003Z,71.90
2022-08-10T23:58:49.630Z,71.90
